createdAt,value
2024-02-21T00:00:16.185Z,21.58
2024-02-21T00:02:42.817Z,23.50
2024-02-21T00:05:09.821Z,24.40
2024-02-21T00:07:36.549Z,26.33
2024-02-21T00:10:04.410Z,20.35
2024-02-21T00:12:30.981Z,24.40
2024-02-21T00:14:58.045Z,22.83
2024-02-21T00:17:27.241Z,22.30
2024-02-21T00:19:54.000Z,18.33
2024-02-21T00:22:20.651Z,21.77
2024-02-21T00:24:47.219Z,22.35
2024-02-21T00:27:13.979Z,28.35
2024-02-21T00:29:40.624Z,22.65
2024-02-21T00:32:07.411Z,27.30
2024-02-21T00:34:36.500Z,23.17
2024-02-21T00:37:03.268Z,15.90
2024-02-21T00:39:29.824Z,23.85
2024-02-21T00:41:56.596Z,22.25
2024-02-21T00:44:23.363Z,25.20
2024-02-21T00:46:50.153Z,30.83
2024-02-21T00:49:17.055Z,19.48
2024-02-21T00:51:43.633Z,21.10
2024-02-21T00:54:10.349Z,24.25
2024-02-21T00:56:37.140Z,19.50
2024-02-21T00:59:03.844Z,22.85
2024-02-21T01:01:30.743Z,22.58
2024-02-21T01:03:57.847Z,20.60
2024-02-21T01:06:24.774Z,22.13
2024-02-21T01:08:51.610Z,22.05
2024-02-21T01:11:18.534Z,22.88
2024-02-21T01:13:45.476Z,23.33
2024-02-21T01:16:12.264Z,26.45
2024-02-21T01:18:40.903Z,21.83
2024-02-21T01:21:08.922Z,20.25
2024-02-21T01:23:36.645Z,24.90
2024-02-21T01:26:04.642Z,28.08
2024-02-21T01:28:31.861Z,23.55
2024-02-21T01:30:58.655Z,21.70
2024-02-21T01:33:25.452Z,21.05
2024-02-21T01:35:52.425Z,23.23
2024-02-21T01:38:19.333Z,22.65
2024-02-21T01:40:46.268Z,21.88
2024-02-21T01:43:21.657Z,19.83
2024-02-21T01:45:51.708Z,18.92
2024-02-21T01:48:19.520Z,21.48
2024-02-21T01:50:47.812Z,13.63
2024-02-21T01:53:20.540Z,18.40
2024-02-21T01:55:47.930Z,21.17
2024-02-21T01:58:15.932Z,23.17
2024-02-21T02:00:44.270Z,22.50
2024-02-21T02:03:18.179Z,19.38
2024-02-21T02:05:49.565Z,16.23
2024-02-21T02:08:25.597Z,20.77
2024-02-21T02:10:53.331Z,15.73
2024-02-21T02:13:20.212Z,21.17
2024-02-21T02:15:49.552Z,16.92
2024-02-21T02:18:18.197Z,20.38
2024-02-21T02:20:45.825Z,17.25
2024-02-21T02:23:27.996Z,18.55
2024-02-21T02:25:55.072Z,22.93
2024-02-21T02:28:22.429Z,24.80
2024-02-21T02:30:49.704Z,17.75
2024-02-21T02:33:18.937Z,21.15
2024-02-21T02:35:46.573Z,14.40
2024-02-21T02:38:14.325Z,18.90
2024-02-21T02:40:42.426Z,16.65
2024-02-21T02:43:09.629Z,13.82
2024-02-21T02:45:36.335Z,19.23
2024-02-21T02:48:03.329Z,12.45
2024-02-21T02:50:30.127Z,14.35
2024-02-21T02:52:57.049Z,15.40
2024-02-21T02:55:24.256Z,13.15
2024-02-21T02:57:51.015Z,17.30
2024-02-21T03:00:18.443Z,13.70
2024-02-21T03:02:47.637Z,16.35
2024-02-21T03:05:19.935Z,12.77
2024-02-21T03:07:47.997Z,12.68
2024-02-21T03:10:18.226Z,13.88
2024-02-21T03:12:45.403Z,15.15
2024-02-21T03:15:13.450Z,9.38
2024-02-21T03:17:40.669Z,17.10
2024-02-21T03:20:11.442Z,16.58
2024-02-21T03:22:39.181Z,15.65
2024-02-21T03:25:07.577Z,16.55
2024-02-21T03:27:34.588Z,12.10
2024-02-21T03:30:01.347Z,13.20
2024-02-21T03:32:29.542Z,12.77
2024-02-21T03:34:56.450Z,14.90
2024-02-21T03:37:23.336Z,19.77
2024-02-21T03:39:50.029Z,12.15
2024-02-21T03:42:16.602Z,13.48
2024-02-21T03:44:43.253Z,13.68
2024-02-21T03:47:11.726Z,14.60
2024-02-21T03:49:38.988Z,14.25
2024-02-21T03:52:05.821Z,13.18
2024-02-21T03:54:33.437Z,16.98
2024-02-21T03:57:00.165Z,13.77
2024-02-21T03:59:26.935Z,10.13
2024-02-21T04:01:54.500Z,12.85
2024-02-21T04:04:22.153Z,15.23
2024-02-21T04:06:49.625Z,13.18
2024-02-21T04:09:16.699Z,15.07
2024-02-21T04:11:43.537Z,10.18
2024-02-21T04:14:12.369Z,12.52
2024-02-21T04:16:40.089Z,15.18
2024-02-21T04:19:06.836Z,12.45
2024-02-21T04:21:33.654Z,12.23
2024-02-21T04:24:00.673Z,10.50
2024-02-21T04:26:27.359Z,10.88
2024-02-21T04:28:54.214Z,11.75
2024-02-21T04:31:20.953Z,9.85
2024-02-21T04:33:47.818Z,12.40
2024-02-21T04:36:14.501Z,11.52
2024-02-21T04:38:41.949Z,13.93
2024-02-21T04:41:09.174Z,13.20
2024-02-21T04:43:36.174Z,9.98
2024-02-21T04:46:03.103Z,11.43
2024-02-21T04:48:29.841Z,12.75
2024-02-21T04:50:56.639Z,13.18
2024-02-21T04:53:23.376Z,12.30
2024-02-21T04:55:50.007Z,16.27
2024-02-21T04:58:16.808Z,14.55
2024-02-21T05:00:43.509Z,13.27
2024-02-21T05:03:10.272Z,10.85
2024-02-21T05:05:37.200Z,12.93
2024-02-21T05:08:04.386Z,12.40
2024-02-21T05:10:31.292Z,9.82
2024-02-21T05:12:58.772Z,12.40
2024-02-21T05:15:25.389Z,12.82
2024-02-21T05:17:52.131Z,10.68
2024-02-21T05:20:18.866Z,16.67
2024-02-21T05:22:45.592Z,11.52
2024-02-21T05:25:12.265Z,10.77
2024-02-21T05:27:39.674Z,14.32
2024-02-21T05:30:07.815Z,10.38
2024-02-21T05:32:34.622Z,13.93
2024-02-21T05:35:01.820Z,10.57
2024-02-21T05:37:28.652Z,16.67
2024-02-21T05:39:55.366Z,9.60
2024-02-21T05:42:21.969Z,14.80
2024-02-21T05:44:48.702Z,12.70
2024-02-21T05:47:16.746Z,14.32
2024-02-21T05:49:43.886Z,15.80
2024-02-21T05:52:10.948Z,15.48
2024-02-21T05:54:41.054Z,15.85
2024-02-21T05:57:09.026Z,14.95
2024-02-21T05:59:37.347Z,19.45
2024-02-21T06:02:05.337Z,15.60
2024-02-21T06:04:33.278Z,14.30
2024-02-21T06:07:00.511Z,13.95
2024-02-21T06:09:27.157Z,14.25
2024-02-21T06:11:53.820Z,13.45
2024-02-21T06:14:21.106Z,11.50
2024-02-21T06:16:47.836Z,14.85
2024-02-21T06:19:14.707Z,19.98
2024-02-21T06:21:41.537Z,15.95
2024-02-21T06:24:08.241Z,14.80
2024-02-21T06:26:34.986Z,17.48
2024-02-21T06:29:02.842Z,15.02
2024-02-21T06:31:30.292Z,17.92
2024-02-21T06:33:57.204Z,17.27
2024-02-21T06:36:24.158Z,17.80
2024-02-21T06:38:50.778Z,20.23
2024-02-21T06:41:19.795Z,15.60
2024-02-21T06:43:50.156Z,20.95
2024-02-21T06:46:27.573Z,16.27
2024-02-21T06:48:54.665Z,16.92
2024-02-21T06:51:21.535Z,22.27
2024-02-21T06:53:48.201Z,16.38
2024-02-21T06:56:15.121Z,13.10
2024-02-21T06:58:41.855Z,11.65
2024-02-21T07:01:09.338Z,16.90
2024-02-21T07:03:36.085Z,14.55
2024-02-21T07:06:02.975Z,14.77
2024-02-21T07:08:30.175Z,16.85
2024-02-21T07:10:57.016Z,11.57
2024-02-21T07:13:24.046Z,15.98
2024-02-21T07:15:50.939Z,23.13
2024-02-21T07:18:18.076Z,16.92
2024-02-21T07:20:44.794Z,14.45
2024-02-21T07:23:11.451Z,16.67
2024-02-21T07:25:38.192Z,17.67
2024-02-21T07:28:05.273Z,18.92
2024-02-21T07:30:32.013Z,14.50
2024-02-21T07:32:58.814Z,16.60
2024-02-21T07:35:25.584Z,14.82
2024-02-21T07:37:52.244Z,18.77
2024-02-21T07:40:19.329Z,15.80
2024-02-21T07:42:49.050Z,18.92
2024-02-21T07:45:19.393Z,15.52
2024-02-21T07:47:46.184Z,13.45
2024-02-21T07:50:13.064Z,14.68
2024-02-21T07:52:39.850Z,16.75
2024-02-21T07:55:06.676Z,19.73
2024-02-21T07:57:33.332Z,14.25
2024-02-21T07:59:59.940Z,17.23
2024-02-21T08:02:26.552Z,16.77
2024-02-21T08:04:53.215Z,19.75
2024-02-21T08:07:19.954Z,15.65
2024-02-21T08:09:46.625Z,16.08
2024-02-21T08:12:13.321Z,17.27
2024-02-21T08:14:39.932Z,14.70
2024-02-21T08:17:06.857Z,17.48
2024-02-21T08:19:33.692Z,13.63
2024-02-21T08:22:00.722Z,15.48
2024-02-21T08:24:28.370Z,19.30
2024-02-21T08:26:54.915Z,14.32
2024-02-21T08:29:21.668Z,14.60
2024-02-21T08:31:48.411Z,13.23
2024-02-21T08:34:15.242Z,15.00
2024-02-21T08:36:42.016Z,13.73
2024-02-21T08:39:10.939Z,12.15
2024-02-21T08:41:48.190Z,14.10
2024-02-21T08:44:29.034Z,12.35
2024-02-21T08:46:56.478Z,18.05
2024-02-21T08:49:23.867Z,11.98
2024-02-21T08:51:50.923Z,12.88
2024-02-21T08:54:18.008Z,10.38
2024-02-21T08:56:44.759Z,10.77
2024-02-21T08:59:11.830Z,10.95
2024-02-21T09:01:38.914Z,12.65
2024-02-21T09:04:06.485Z,12.43
2024-02-21T09:06:34.727Z,10.35
2024-02-21T09:09:01.840Z,10.35
2024-02-21T09:11:29.134Z,13.30
2024-02-21T09:13:56.491Z,8.63
2024-02-21T09:16:24.279Z,8.50
2024-02-21T09:18:51.219Z,7.53
2024-02-21T09:21:17.983Z,14.77
2024-02-21T09:23:46.800Z,8.10
2024-02-21T09:26:17.107Z,9.93
2024-02-21T09:28:46.889Z,9.50
2024-02-21T09:31:13.641Z,7.28
2024-02-21T09:33:40.260Z,8.52
2024-02-21T09:36:07.324Z,9.50
2024-02-21T09:38:33.972Z,6.95
2024-02-21T09:41:21.596Z,7.35
2024-02-21T09:43:51.305Z,10.30
2024-02-21T09:46:22.198Z,8.02
2024-02-21T09:49:21.160Z,7.25
2024-02-21T09:51:52.296Z,7.85
2024-02-21T09:54:19.702Z,9.32
2024-02-21T09:56:48.172Z,12.30
2024-02-21T09:59:18.279Z,7.18
2024-02-21T10:01:45.703Z,7.88
2024-02-21T10:04:12.769Z,6.47
2024-02-21T10:06:40.259Z,7.47
2024-02-21T10:09:08.101Z,5.95
2024-02-21T10:11:38.331Z,7.45
2024-02-21T10:14:06.952Z,11.00
2024-02-21T10:16:34.943Z,10.73
2024-02-21T10:19:01.932Z,10.25
2024-02-21T10:21:28.658Z,9.52
2024-02-21T10:23:55.576Z,12.13
2024-02-21T10:26:23.743Z,7.97
2024-02-21T10:28:52.772Z,17.63
2024-02-21T10:31:27.171Z,10.95
2024-02-21T10:33:58.257Z,12.85
2024-02-21T10:36:26.071Z,9.68
2024-02-21T10:38:53.606Z,9.90
2024-02-21T10:41:22.383Z,9.02
2024-02-21T10:43:55.166Z,11.45
2024-02-21T10:46:24.097Z,13.60
2024-02-21T10:49:14.112Z,8.93
2024-02-21T10:51:45.136Z,12.10
2024-02-21T10:54:42.106Z,9.95
2024-02-21T10:57:11.493Z,11.32
2024-02-21T10:59:40.336Z,12.48
2024-02-21T11:02:07.516Z,10.77
2024-02-21T11:04:39.801Z,12.23
2024-02-21T11:07:10.868Z,11.73
2024-02-21T11:09:38.732Z,10.10
2024-02-21T11:12:07.213Z,10.63
2024-02-21T11:14:36.659Z,15.10
2024-02-21T11:17:04.804Z,9.98
2024-02-21T11:19:32.508Z,10.43
2024-02-21T11:22:01.823Z,10.38
2024-02-21T11:24:34.655Z,11.35
2024-02-21T11:27:13.637Z,11.10
2024-02-21T11:29:47.630Z,9.23
2024-02-21T11:32:22.186Z,10.90
2024-02-21T11:35:07.063Z,11.27
2024-02-21T11:37:39.811Z,9.32
2024-02-21T11:40:12.281Z,8.55
2024-02-21T11:42:40.137Z,7.93
2024-02-21T11:45:07.804Z,12.15
2024-02-21T11:47:34.570Z,14.27
2024-02-21T11:50:01.671Z,9.85
2024-02-21T11:52:29.193Z,12.63
2024-02-21T11:55:05.627Z,9.65
2024-02-21T11:57:32.477Z,10.13
2024-02-21T12:00:00.631Z,8.82
2024-02-21T12:02:31.910Z,9.50
2024-02-21T12:04:58.816Z,8.02
2024-02-21T12:07:26.336Z,5.78
2024-02-21T12:09:53.703Z,12.73
2024-02-21T12:12:23.603Z,10.57
2024-02-21T12:15:00.275Z,11.00
2024-02-21T12:17:27.057Z,11.35
2024-02-21T12:19:53.869Z,10.27
2024-02-21T12:22:20.703Z,8.95
2024-02-21T12:24:48.712Z,6.13
2024-02-21T12:27:15.326Z,9.35
2024-02-21T12:29:42.061Z,6.68
2024-02-21T12:32:08.860Z,9.68
2024-02-21T12:34:44.253Z,7.43
2024-02-21T12:37:20.958Z,10.05
2024-02-21T12:39:48.412Z,8.40
2024-02-21T12:42:15.115Z,8.55
2024-02-21T12:44:43.149Z,10.55
2024-02-21T12:47:10.248Z,9.50
2024-02-21T12:49:37.171Z,11.25
2024-02-21T12:52:04.836Z,10.73
2024-02-21T12:54:32.542Z,10.05
2024-02-21T12:56:59.321Z,9.88
2024-02-21T12:59:27.073Z,10.65
2024-02-21T13:01:54.075Z,9.63
2024-02-21T13:04:22.788Z,8.68
2024-02-21T13:06:50.118Z,10.73
2024-02-21T13:09:16.918Z,7.75
2024-02-21T13:11:45.666Z,13.60
2024-02-21T13:14:12.775Z,9.40
2024-02-21T13:16:42.098Z,6.93
2024-02-21T13:19:09.781Z,9.95
2024-02-21T13:21:37.098Z,10.82
2024-02-21T13:24:04.177Z,6.95
2024-02-21T13:26:30.904Z,6.85
2024-02-21T13:28:57.654Z,11.23
2024-02-21T13:31:26.264Z,10.25
2024-02-21T13:33:53.409Z,7.65
2024-02-21T13:36:20.161Z,9.48
2024-02-21T13:38:48.003Z,10.02
2024-02-21T13:41:14.723Z,7.95
2024-02-21T13:43:41.602Z,7.20
2024-02-21T13:46:11.008Z,6.90
2024-02-21T13:48:38.294Z,8.73
2024-02-21T13:51:05.903Z,8.13
2024-02-21T13:53:32.547Z,10.05
2024-02-21T13:55:59.410Z,8.73
2024-02-21T13:58:27.441Z,8.05
2024-02-21T14:00:54.822Z,7.70
2024-02-21T14:03:21.875Z,10.25
2024-02-21T14:05:49.696Z,10.05
2024-02-21T14:08:16.765Z,12.00
2024-02-21T14:10:43.826Z,8.95
2024-02-21T14:13:10.617Z,6.05
2024-02-21T14:15:38.607Z,11.00
2024-02-21T14:18:10.259Z,7.95
2024-02-21T14:20:37.365Z,6.63
2024-02-21T14:25:32.244Z,5.38
2024-02-21T14:27:59.279Z,6.95
2024-02-21T14:30:26.563Z,4.55
2024-02-21T14:32:53.278Z,6.60
2024-02-21T14:35:20.086Z,5.82
2024-02-21T14:37:47.211Z,7.60
2024-02-21T14:40:14.086Z,6.90
2024-02-21T14:42:40.700Z,6.80
2024-02-21T14:45:07.912Z,9.55
2024-02-21T14:47:34.973Z,7.75
2024-02-21T14:50:03.831Z,5.00
2024-02-21T14:52:30.816Z,6.28
2024-02-21T14:54:57.718Z,7.00
2024-02-21T14:57:24.423Z,8.43
2024-02-21T14:59:53.851Z,8.13
2024-02-21T15:02:20.798Z,6.53
2024-02-21T15:04:47.519Z,10.02
2024-02-21T15:07:14.267Z,8.00
2024-02-21T15:09:40.908Z,7.38
2024-02-21T15:12:07.945Z,6.97
2024-02-21T15:14:34.607Z,4.20
2024-02-21T15:17:01.413Z,6.15
2024-02-21T15:19:28.376Z,10.52
2024-02-21T15:21:55.386Z,10.85
2024-02-21T15:24:22.139Z,8.30
2024-02-21T15:26:48.784Z,5.18
2024-02-21T15:29:15.454Z,4.70
2024-02-21T15:31:47.637Z,6.63
2024-02-21T15:34:16.705Z,11.27
2024-02-21T15:36:43.813Z,7.25
2024-02-21T15:39:11.821Z,8.07
2024-02-21T15:41:38.475Z,4.35
2024-02-21T15:44:05.600Z,7.93
2024-02-21T15:46:35.012Z,8.43
2024-02-21T15:49:01.954Z,7.18
2024-02-21T15:51:28.879Z,8.85
2024-02-21T15:53:55.564Z,10.50
2024-02-21T15:56:22.367Z,6.80
2024-02-21T15:58:49.570Z,6.57
2024-02-21T16:01:17.560Z,7.60
2024-02-21T16:03:44.249Z,5.30
2024-02-21T16:06:11.581Z,10.27
2024-02-21T16:08:41.863Z,8.05
2024-02-21T16:11:17.259Z,8.70
2024-02-21T16:13:44.775Z,7.82
2024-02-21T16:16:11.774Z,8.25
2024-02-21T16:18:38.888Z,5.05
2024-02-21T16:21:06.396Z,7.22
2024-02-21T16:23:33.602Z,6.10
2024-02-21T16:26:00.373Z,7.95
2024-02-21T16:28:27.106Z,5.82
2024-02-21T16:30:54.505Z,6.57
2024-02-21T16:33:21.180Z,9.38
2024-02-21T16:35:47.928Z,10.88
2024-02-21T16:38:14.605Z,11.93
2024-02-21T16:40:42.275Z,8.27
2024-02-21T16:43:08.874Z,10.77
2024-02-21T16:45:36.214Z,10.50
2024-02-21T16:48:07.290Z,10.35
2024-02-21T16:50:41.889Z,7.10
2024-02-21T16:53:16.053Z,8.47
2024-02-21T16:55:42.912Z,9.77
2024-02-21T16:58:10.806Z,8.80
2024-02-21T17:00:40.264Z,7.22
2024-02-21T17:03:07.296Z,10.52
2024-02-21T17:05:37.621Z,8.45
2024-02-21T17:08:08.390Z,8.88
2024-02-21T17:10:36.059Z,9.50
2024-02-21T17:13:05.311Z,9.18
2024-02-21T17:15:31.939Z,13.02
2024-02-21T17:18:00.061Z,10.57
2024-02-21T17:20:27.020Z,17.02
2024-02-21T17:22:53.913Z,8.90
2024-02-21T17:25:20.611Z,8.38
2024-02-21T17:27:47.324Z,13.20
2024-02-21T17:30:14.160Z,8.73
2024-02-21T17:32:40.875Z,9.00
2024-02-21T17:35:07.918Z,9.98
2024-02-21T17:37:37.429Z,8.73
2024-02-21T17:40:08.465Z,14.02
2024-02-21T17:42:35.849Z,9.80
2024-02-21T17:45:04.295Z,9.95
2024-02-21T17:47:31.959Z,8.52
2024-02-21T17:49:59.235Z,14.30
2024-02-21T17:52:28.319Z,10.02
2024-02-21T17:54:55.051Z,14.80
2024-02-21T17:57:22.387Z,14.45
2024-02-21T17:59:48.998Z,12.40
2024-02-21T18:02:20.953Z,10.90
2024-02-21T18:04:48.945Z,9.98
2024-02-21T18:07:16.023Z,9.90
2024-02-21T18:09:42.869Z,8.02
2024-02-21T18:12:09.757Z,9.80
2024-02-21T18:14:36.979Z,11.00
2024-02-21T18:17:04.099Z,7.65
2024-02-21T18:19:36.121Z,12.02
2024-02-21T18:22:03.505Z,9.18
2024-02-21T18:24:34.107Z,8.38
2024-02-21T18:27:01.273Z,7.38
2024-02-21T18:29:37.876Z,10.77
2024-02-21T18:32:09.633Z,10.35
2024-02-21T18:34:37.517Z,11.60
2024-02-21T18:37:04.668Z,9.82
2024-02-21T18:39:32.186Z,9.85
2024-02-21T18:41:58.964Z,10.88
2024-02-21T18:44:25.683Z,8.38
2024-02-21T18:46:52.501Z,10.02
2024-02-21T18:49:20.485Z,14.77
2024-02-21T18:51:47.638Z,8.35
2024-02-21T18:54:14.562Z,9.02
2024-02-21T18:56:46.225Z,8.63
2024-02-21T18:59:13.529Z,11.40
2024-02-21T19:01:40.840Z,13.75
2024-02-21T19:04:07.717Z,11.52
2024-02-21T19:06:35.187Z,16.17
2024-02-21T19:09:06.065Z,11.18
2024-02-21T19:11:33.205Z,9.55
2024-02-21T19:14:00.157Z,12.13
2024-02-21T19:16:27.835Z,10.27
2024-02-21T19:18:54.788Z,11.55
2024-02-21T19:21:21.633Z,9.57
2024-02-21T19:23:48.363Z,10.65
2024-02-21T19:26:16.428Z,11.23
2024-02-21T19:28:43.363Z,11.27
2024-02-21T19:31:10.233Z,9.25
2024-02-21T19:33:37.938Z,17.58
2024-02-21T19:36:05.438Z,18.90
2024-02-21T19:38:32.250Z,12.15
2024-02-21T19:40:59.041Z,11.52
2024-02-21T19:43:26.314Z,9.35
2024-02-21T19:45:53.557Z,8.25
2024-02-21T19:48:21.533Z,12.38
2024-02-21T19:50:49.233Z,7.15
2024-02-21T19:53:16.011Z,6.50
2024-02-21T19:55:43.007Z,9.65
2024-02-21T19:58:09.705Z,9.07
2024-02-21T20:00:37.102Z,7.75
2024-02-21T20:03:04.598Z,9.60
2024-02-21T20:05:32.733Z,8.27
2024-02-21T20:08:00.018Z,10.20
2024-02-21T20:10:27.729Z,9.45
2024-02-21T20:12:54.527Z,6.43
2024-02-21T20:15:24.008Z,6.70
2024-02-21T20:17:50.895Z,6.60
2024-02-21T20:20:17.977Z,6.90
2024-02-21T20:22:44.840Z,6.68
2024-02-21T20:25:15.775Z,8.57
2024-02-21T20:27:42.500Z,6.93
2024-02-21T20:30:09.404Z,8.90
2024-02-21T20:32:36.393Z,8.48
2024-02-21T20:35:04.531Z,6.75
2024-02-21T20:37:31.341Z,8.05
2024-02-21T20:39:58.486Z,6.60
2024-02-21T20:42:25.566Z,7.35
2024-02-21T20:44:52.415Z,6.88
2024-02-21T20:47:20.978Z,6.53
2024-02-21T20:49:50.196Z,5.88
2024-02-21T20:52:16.954Z,5.70
2024-02-21T20:54:43.643Z,5.95
2024-02-21T20:57:11.441Z,7.05
2024-02-21T20:59:38.584Z,7.10
2024-02-21T21:02:06.160Z,4.95
2024-02-21T21:04:33.497Z,7.47
2024-02-21T21:07:00.786Z,4.85
2024-02-21T21:09:27.641Z,3.95
2024-02-21T21:11:54.615Z,5.93
2024-02-21T21:14:21.572Z,4.50
2024-02-21T21:16:48.369Z,4.28
2024-02-21T21:19:15.774Z,4.43
2024-02-21T21:21:45.072Z,5.78
2024-02-21T21:24:13.727Z,5.93
2024-02-21T21:26:40.434Z,4.70
2024-02-21T21:29:07.311Z,3.80
2024-02-21T21:31:34.102Z,3.92
2024-02-21T21:34:01.919Z,4.95
2024-02-21T21:36:31.919Z,4.00
2024-02-21T21:38:59.768Z,3.63
2024-02-21T21:41:27.294Z,4.32
2024-02-21T21:43:54.032Z,6.97
2024-02-21T21:46:20.714Z,4.30
2024-02-21T21:48:47.378Z,2.92
2024-02-21T21:51:15.589Z,3.35
2024-02-21T21:53:44.758Z,3.22
2024-02-21T21:56:11.495Z,3.50
2024-02-21T21:58:38.340Z,4.55
2024-02-21T22:01:05.331Z,3.22
2024-02-21T22:03:32.020Z,3.67
2024-02-21T22:05:59.737Z,2.88
2024-02-21T22:08:26.479Z,3.20
2024-02-21T22:10:53.219Z,3.55
2024-02-21T22:13:20.063Z,4.93
2024-02-21T22:15:47.757Z,3.15
2024-02-21T22:18:14.724Z,3.75
2024-02-21T22:20:41.924Z,3.30
2024-02-21T22:23:10.600Z,4.75
2024-02-21T22:25:37.638Z,3.08
2024-02-21T22:28:04.717Z,2.53
2024-02-21T22:30:31.342Z,2.90
2024-02-21T22:32:57.991Z,2.38
2024-02-21T22:35:24.776Z,2.63
2024-02-21T22:37:51.966Z,4.85
2024-02-21T22:40:18.954Z,2.17
2024-02-21T22:42:45.921Z,3.13
2024-02-21T22:45:12.587Z,2.30
2024-02-21T22:47:39.226Z,2.55
2024-02-21T22:50:06.260Z,3.45
2024-02-21T22:52:33.066Z,2.10
2024-02-21T22:55:01.129Z,2.30
2024-02-21T22:57:27.818Z,2.47
2024-02-21T22:59:54.320Z,2.42
2024-02-21T23:02:21.075Z,2.40
2024-02-21T23:04:47.741Z,2.80
2024-02-21T23:07:15.473Z,2.60
2024-02-21T23:09:42.047Z,2.60
2024-02-21T23:12:09.340Z,2.22
2024-02-21T23:14:36.854Z,2.10
2024-02-21T23:17:03.646Z,2.03
2024-02-21T23:19:30.364Z,2.58
2024-02-21T23:21:57.201Z,1.90
2024-02-21T23:24:24.866Z,2.40
2024-02-21T23:26:51.539Z,2.58
2024-02-21T23:29:18.435Z,3.58
2024-02-21T23:31:45.211Z,2.40
2024-02-21T23:34:11.954Z,2.10
2024-02-21T23:36:38.660Z,2.30
2024-02-21T23:39:07.320Z,2.35
2024-02-21T23:41:33.996Z,3.55
2024-02-21T23:44:00.877Z,2.78
2024-02-21T23:46:27.809Z,3.22
2024-02-21T23:49:00.349Z,3.10
2024-02-21T23:53:54.523Z,3.38
2024-02-21T23:56:21.268Z,2.40
2024-02-21T23:58:48.077Z,2.90
